sensor_id;sensor_type;location;lat;lon;timestamp;P1;durP1;ratioP1;P2;durP2;ratioP2
26277;SDS011;14000;52.056;8.510;2023-01-04T00:00:58;12.00;;;2.50;;
26277;SDS011;14000;52.056;8.510;2023-01-04T00:03:24;9.80;;;1.80;;
26277;SDS011;14000;52.056;8.510;2023-01-04T00:05:50;11.03;;;2.10;;
26277;SDS011;14000;52.056;8.510;2023-01-04T00:08:15;12.07;;;2.30;;
26277;SDS011;14000;52.056;8.510;2023-01-04T00:10:41;11.80;;;1.93;;
26277;SDS011;14000;52.056;8.510;2023-01-04T00:13:06;11.70;;;2.40;;
26277;SDS011;14000;52.056;8.510;2023-01-04T00:15:32;10.87;;;2.00;;
26277;SDS011;14000;52.056;8.510;2023-01-04T00:17:57;8.73;;;2.20;;
26277;SDS011;14000;52.056;8.510;2023-01-04T00:20:23;9.87;;;2.30;;
26277;SDS011;14000;52.056;8.510;2023-01-04T00:22:49;12.77;;;2.10;;
26277;SDS011;14000;52.056;8.510;2023-01-04T00:25:14;10.90;;;2.20;;
26277;SDS011;14000;52.056;8.510;2023-01-04T00:27:40;8.67;;;2.00;;
26277;SDS011;14000;52.056;8.510;2023-01-04T00:30:06;12.03;;;2.13;;
26277;SDS011;14000;52.056;8.510;2023-01-04T00:32:32;10.93;;;2.10;;
26277;SDS011;14000;52.056;8.510;2023-01-04T00:34:58;10.17;;;2.10;;
26277;SDS011;14000;52.056;8.510;2023-01-04T00:37:23;12.90;;;2.40;;
26277;SDS011;14000;52.056;8.510;2023-01-04T00:39:49;9.80;;;2.00;;
26277;SDS011;14000;52.056;8.510;2023-01-04T00:42:15;10.80;;;2.37;;
26277;SDS011;14000;52.056;8.510;2023-01-04T00:44:40;12.17;;;2.30;;
26277;SDS011;14000;52.056;8.510;2023-01-04T00:47:06;9.67;;;1.90;;
26277;SDS011;14000;52.056;8.510;2023-01-04T00:49:32;11.07;;;1.93;;
26277;SDS011;14000;52.056;8.510;2023-01-04T00:51:57;10.83;;;1.93;;
26277;SDS011;14000;52.056;8.510;2023-01-04T00:54:23;10.30;;;2.10;;
26277;SDS011;14000;52.056;8.510;2023-01-04T00:56:49;10.23;;;2.23;;
26277;SDS011;14000;52.056;8.510;2023-01-04T00:59:16;11.73;;;2.40;;
26277;SDS011;14000;52.056;8.510;2023-01-04T01:01:43;9.07;;;2.10;;
26277;SDS011;14000;52.056;8.510;2023-01-04T01:04:13;11.13;;;2.33;;
26277;SDS011;14000;52.056;8.510;2023-01-04T01:06:40;8.30;;;2.00;;
26277;SDS011;14000;52.056;8.510;2023-01-04T01:09:07;10.43;;;2.00;;
26277;SDS011;14000;52.056;8.510;2023-01-04T01:11:33;9.43;;;2.00;;
26277;SDS011;14000;52.056;8.510;2023-01-04T01:14:00;10.33;;;1.70;;
26277;SDS011;14000;52.056;8.510;2023-01-04T01:16:26;8.97;;;1.60;;
26277;SDS011;14000;52.056;8.510;2023-01-04T01:18:52;10.50;;;2.20;;
26277;SDS011;14000;52.056;8.510;2023-01-04T01:21:19;10.23;;;2.30;;
26277;SDS011;14000;52.056;8.510;2023-01-04T01:23:48;12.03;;;2.17;;
26277;SDS011;14000;52.056;8.510;2023-01-04T01:26:15;8.83;;;1.90;;
26277;SDS011;14000;52.056;8.510;2023-01-04T01:28:43;8.23;;;1.77;;
26277;SDS011;14000;52.056;8.510;2023-01-04T01:31:10;8.17;;;1.90;;
26277;SDS011;14000;52.056;8.510;2023-01-04T01:33:42;9.00;;;1.73;;
26277;SDS011;14000;52.056;8.510;2023-01-04T01:36:09;8.80;;;1.83;;
26277;SDS011;14000;52.056;8.510;2023-01-04T01:38:36;11.03;;;2.03;;
26277;SDS011;14000;52.056;8.510;2023-01-04T01:41:03;6.13;;;1.63;;
26277;SDS011;14000;52.056;8.510;2023-01-04T01:49:19;10.37;;;1.60;;
26277;SDS011;14000;52.056;8.510;2023-01-04T01:51:52;10.10;;;1.80;;
26277;SDS011;14000;52.056;8.510;2023-01-04T01:54:20;8.93;;;1.87;;
26277;SDS011;14000;52.056;8.510;2023-01-04T01:56:50;9.50;;;1.60;;
26277;SDS011;14000;52.056;8.510;2023-01-04T01:59:19;9.13;;;1.80;;
26277;SDS011;14000;52.056;8.510;2023-01-04T02:01:46;7.67;;;1.40;;
26277;SDS011;14000;52.056;8.510;2023-01-04T02:04:12;11.23;;;1.90;;
26277;SDS011;14000;52.056;8.510;2023-01-04T02:06:40;6.70;;;1.83;;
26277;SDS011;14000;52.056;8.510;2023-01-04T02:09:10;7.93;;;1.80;;
26277;SDS011;14000;52.056;8.510;2023-01-04T02:11:37;8.03;;;1.70;;
26277;SDS011;14000;52.056;8.510;2023-01-04T02:14:03;10.50;;;2.10;;
26277;SDS011;14000;52.056;8.510;2023-01-04T02:27:54;12.43;;;2.27;;
26277;SDS011;14000;52.056;8.510;2023-01-04T02:38:44;11.20;;;1.90;;
26277;SDS011;14000;52.056;8.510;2023-01-04T02:46:46;12.83;;;2.50;;
26277;SDS011;14000;52.056;8.510;2023-01-04T02:49:17;11.70;;;2.40;;
26277;SDS011;14000;52.056;8.510;2023-01-04T02:52:01;13.63;;;2.60;;
26277;SDS011;14000;52.056;8.510;2023-01-04T02:54:27;11.60;;;2.87;;
26277;SDS011;14000;52.056;8.510;2023-01-04T03:05:32;11.30;;;2.93;;
26277;SDS011;14000;52.056;8.510;2023-01-04T03:08:43;12.23;;;2.83;;
26277;SDS011;14000;52.056;8.510;2023-01-04T03:11:33;14.10;;;3.00;;
26277;SDS011;14000;52.056;8.510;2023-01-04T03:14:23;14.30;;;3.40;;
26277;SDS011;14000;52.056;8.510;2023-01-04T03:16:53;11.93;;;3.20;;
26277;SDS011;14000;52.056;8.510;2023-01-04T03:19:21;13.00;;;3.30;;
26277;SDS011;14000;52.056;8.510;2023-01-04T03:22:09;15.67;;;3.60;;
26277;SDS011;14000;52.056;8.510;2023-01-04T03:24:58;13.13;;;3.40;;
26277;SDS011;14000;52.056;8.510;2023-01-04T03:27:44;10.53;;;3.33;;
26277;SDS011;14000;52.056;8.510;2023-01-04T03:30:31;13.37;;;3.00;;
26277;SDS011;14000;52.056;8.510;2023-01-04T03:33:21;11.40;;;3.40;;
26277;SDS011;14000;52.056;8.510;2023-01-04T03:36:17;14.37;;;3.40;;
26277;SDS011;14000;52.056;8.510;2023-01-04T03:39:06;10.40;;;3.43;;
26277;SDS011;14000;52.056;8.510;2023-01-04T03:50:56;10.97;;;3.67;;
26277;SDS011;14000;52.056;8.510;2023-01-04T03:53:24;14.13;;;3.60;;
26277;SDS011;14000;52.056;8.510;2023-01-04T03:55:51;11.40;;;3.20;;
26277;SDS011;14000;52.056;8.510;2023-01-04T03:58:18;15.50;;;3.30;;
26277;SDS011;14000;52.056;8.510;2023-01-04T04:00:45;15.33;;;3.27;;
26277;SDS011;14000;52.056;8.510;2023-01-04T04:03:11;12.70;;;3.60;;
26277;SDS011;14000;52.056;8.510;2023-01-04T04:05:38;13.80;;;3.00;;
26277;SDS011;14000;52.056;8.510;2023-01-04T04:08:23;10.73;;;3.10;;
26277;SDS011;14000;52.056;8.510;2023-01-04T04:10:51;12.53;;;3.27;;
26277;SDS011;14000;52.056;8.510;2023-01-04T04:13:18;10.83;;;3.37;;
26277;SDS011;14000;52.056;8.510;2023-01-04T04:15:44;10.40;;;2.97;;
26277;SDS011;14000;52.056;8.510;2023-01-04T04:18:09;9.33;;;3.00;;
26277;SDS011;14000;52.056;8.510;2023-01-04T04:20:35;14.33;;;3.20;;
26277;SDS011;14000;52.056;8.510;2023-01-04T04:23:01;11.13;;;3.43;;
26277;SDS011;14000;52.056;8.510;2023-01-04T04:25:27;12.90;;;4.00;;
26277;SDS011;14000;52.056;8.510;2023-01-04T04:27:52;10.97;;;3.40;;
26277;SDS011;14000;52.056;8.510;2023-01-04T04:30:18;10.73;;;3.03;;
26277;SDS011;14000;52.056;8.510;2023-01-04T04:32:43;15.10;;;3.27;;
26277;SDS011;14000;52.056;8.510;2023-01-04T04:35:09;11.03;;;3.53;;
26277;SDS011;14000;52.056;8.510;2023-01-04T04:37:35;11.37;;;3.00;;
26277;SDS011;14000;52.056;8.510;2023-01-04T04:40:01;9.43;;;3.40;;
26277;SDS011;14000;52.056;8.510;2023-01-04T04:42:30;11.03;;;3.43;;
26277;SDS011;14000;52.056;8.510;2023-01-04T04:44:56;12.57;;;3.33;;
26277;SDS011;14000;52.056;8.510;2023-01-04T04:47:21;10.50;;;2.73;;
26277;SDS011;14000;52.056;8.510;2023-01-04T04:49:47;10.83;;;3.13;;
26277;SDS011;14000;52.056;8.510;2023-01-04T04:52:13;9.80;;;2.70;;
26277;SDS011;14000;52.056;8.510;2023-01-04T04:54:38;10.03;;;2.70;;
26277;SDS011;14000;52.056;8.510;2023-01-04T04:57:04;8.47;;;2.77;;
26277;SDS011;14000;52.056;8.510;2023-01-04T04:59:30;10.93;;;2.70;;
26277;SDS011;14000;52.056;8.510;2023-01-04T05:01:58;10.40;;;2.63;;
26277;SDS011;14000;52.056;8.510;2023-01-04T05:04:24;7.43;;;2.17;;
26277;SDS011;14000;52.056;8.510;2023-01-04T05:06:49;6.40;;;1.83;;
26277;SDS011;14000;52.056;8.510;2023-01-04T05:09:17;8.13;;;2.00;;
26277;SDS011;14000;52.056;8.510;2023-01-04T05:11:42;7.07;;;1.83;;
26277;SDS011;14000;52.056;8.510;2023-01-04T05:14:27;6.40;;;1.63;;
26277;SDS011;14000;52.056;8.510;2023-01-04T05:16:52;7.07;;;1.80;;
26277;SDS011;14000;52.056;8.510;2023-01-04T05:19:18;8.77;;;2.27;;
26277;SDS011;14000;52.056;8.510;2023-01-04T05:21:43;6.80;;;1.70;;
26277;SDS011;14000;52.056;8.510;2023-01-04T05:24:10;7.47;;;1.93;;
26277;SDS011;14000;52.056;8.510;2023-01-04T05:26:36;6.57;;;1.77;;
26277;SDS011;14000;52.056;8.510;2023-01-04T05:29:02;8.47;;;2.10;;
26277;SDS011;14000;52.056;8.510;2023-01-04T05:31:28;5.97;;;1.80;;
26277;SDS011;14000;52.056;8.510;2023-01-04T05:33:54;6.00;;;1.83;;
26277;SDS011;14000;52.056;8.510;2023-01-04T05:36:19;5.60;;;1.63;;
26277;SDS011;14000;52.056;8.510;2023-01-04T05:38:45;7.17;;;1.80;;
26277;SDS011;14000;52.056;8.510;2023-01-04T05:41:11;5.93;;;1.70;;
26277;SDS011;14000;52.056;8.510;2023-01-04T05:43:55;6.43;;;1.93;;
26277;SDS011;14000;52.056;8.510;2023-01-04T05:46:20;8.03;;;1.90;;
26277;SDS011;14000;52.056;8.510;2023-01-04T05:48:46;7.23;;;2.00;;
26277;SDS011;14000;52.056;8.510;2023-01-04T05:51:13;8.10;;;1.90;;
26277;SDS011;14000;52.056;8.510;2023-01-04T05:53:44;7.07;;;1.97;;
26277;SDS011;14000;52.056;8.510;2023-01-04T05:56:09;6.00;;;2.07;;
26277;SDS011;14000;52.056;8.510;2023-01-04T05:58:35;5.70;;;1.97;;
26277;SDS011;14000;52.056;8.510;2023-01-04T06:01:01;7.30;;;2.27;;
26277;SDS011;14000;52.056;8.510;2023-01-04T06:03:26;7.23;;;2.40;;
26277;SDS011;14000;52.056;8.510;2023-01-04T06:05:52;5.47;;;2.00;;
26277;SDS011;14000;52.056;8.510;2023-01-04T06:08:18;6.00;;;2.10;;
26277;SDS011;14000;52.056;8.510;2023-01-04T06:10:43;6.73;;;1.80;;
26277;SDS011;14000;52.056;8.510;2023-01-04T06:13:09;9.30;;;2.67;;
26277;SDS011;14000;52.056;8.510;2023-01-04T06:15:34;9.47;;;2.20;;
26277;SDS011;14000;52.056;8.510;2023-01-04T06:18:00;6.83;;;2.60;;
26277;SDS011;14000;52.056;8.510;2023-01-04T06:20:26;7.00;;;2.53;;
26277;SDS011;14000;52.056;8.510;2023-01-04T06:22:51;5.37;;;1.60;;
26277;SDS011;14000;52.056;8.510;2023-01-04T06:25:17;10.00;;;2.13;;
26277;SDS011;14000;52.056;8.510;2023-01-04T06:27:42;9.10;;;2.57;;
26277;SDS011;14000;52.056;8.510;2023-01-04T06:30:08;8.30;;;2.40;;
26277;SDS011;14000;52.056;8.510;2023-01-04T06:32:34;7.23;;;2.50;;
26277;SDS011;14000;52.056;8.510;2023-01-04T06:35:00;6.83;;;2.63;;
26277;SDS011;14000;52.056;8.510;2023-01-04T06:37:26;4.87;;;1.80;;
26277;SDS011;14000;52.056;8.510;2023-01-04T06:39:52;7.57;;;1.90;;
26277;SDS011;14000;52.056;8.510;2023-01-04T06:42:17;6.27;;;2.20;;
26277;SDS011;14000;52.056;8.510;2023-01-04T06:45:09;6.87;;;2.07;;
26277;SDS011;14000;52.056;8.510;2023-01-04T06:47:35;6.73;;;2.17;;
26277;SDS011;14000;52.056;8.510;2023-01-04T06:50:01;8.63;;;2.57;;
26277;SDS011;14000;52.056;8.510;2023-01-04T06:52:28;7.73;;;2.77;;
26277;SDS011;14000;52.056;8.510;2023-01-04T06:54:54;6.60;;;2.47;;
26277;SDS011;14000;52.056;8.510;2023-01-04T06:57:20;7.60;;;2.10;;
26277;SDS011;14000;52.056;8.510;2023-01-04T06:59:45;9.17;;;2.70;;
26277;SDS011;14000;52.056;8.510;2023-01-04T07:02:12;8.30;;;2.40;;
26277;SDS011;14000;52.056;8.510;2023-01-04T07:04:39;6.47;;;2.50;;
26277;SDS011;14000;52.056;8.510;2023-01-04T07:07:05;7.63;;;2.13;;
26277;SDS011;14000;52.056;8.510;2023-01-04T07:09:30;7.20;;;2.60;;
26277;SDS011;14000;52.056;8.510;2023-01-04T07:11:56;7.27;;;2.70;;
26277;SDS011;14000;52.056;8.510;2023-01-04T07:14:22;6.67;;;2.70;;
26277;SDS011;14000;52.056;8.510;2023-01-04T07:16:48;7.50;;;3.10;;
26277;SDS011;14000;52.056;8.510;2023-01-04T07:19:13;7.20;;;2.70;;
26277;SDS011;14000;52.056;8.510;2023-01-04T07:21:39;7.03;;;2.50;;
26277;SDS011;14000;52.056;8.510;2023-01-04T07:24:05;8.10;;;2.80;;
26277;SDS011;14000;52.056;8.510;2023-01-04T07:26:31;8.60;;;2.50;;
26277;SDS011;14000;52.056;8.510;2023-01-04T07:28:57;7.27;;;3.00;;
26277;SDS011;14000;52.056;8.510;2023-01-04T07:31:38;6.83;;;2.27;;
26277;SDS011;14000;52.056;8.510;2023-01-04T07:34:04;6.80;;;3.10;;
26277;SDS011;14000;52.056;8.510;2023-01-04T07:36:30;6.40;;;2.10;;
26277;SDS011;14000;52.056;8.510;2023-01-04T07:38:58;6.83;;;2.50;;
26277;SDS011;14000;52.056;8.510;2023-01-04T07:41:24;6.23;;;2.30;;
26277;SDS011;14000;52.056;8.510;2023-01-04T07:43:49;6.40;;;2.60;;
26277;SDS011;14000;52.056;8.510;2023-01-04T07:46:15;5.77;;;2.07;;
26277;SDS011;14000;52.056;8.510;2023-01-04T07:48:41;6.97;;;2.30;;
26277;SDS011;14000;52.056;8.510;2023-01-04T07:51:06;7.90;;;2.90;;
26277;SDS011;14000;52.056;8.510;2023-01-04T07:53:37;6.53;;;2.80;;
26277;SDS011;14000;52.056;8.510;2023-01-04T07:56:02;8.40;;;3.27;;
26277;SDS011;14000;52.056;8.510;2023-01-04T07:58:31;8.10;;;3.40;;
26277;SDS011;14000;52.056;8.510;2023-01-04T08:01:18;7.67;;;2.90;;
26277;SDS011;14000;52.056;8.510;2023-01-04T08:03:44;7.27;;;3.23;;
26277;SDS011;14000;52.056;8.510;2023-01-04T08:06:10;9.30;;;3.60;;
26277;SDS011;14000;52.056;8.510;2023-01-04T08:08:37;10.63;;;3.30;;
26277;SDS011;14000;52.056;8.510;2023-01-04T08:11:04;8.87;;;3.67;;
26277;SDS011;14000;52.056;8.510;2023-01-04T08:13:34;8.60;;;3.50;;
26277;SDS011;14000;52.056;8.510;2023-01-04T08:16:00;8.80;;;3.53;;
26277;SDS011;14000;52.056;8.510;2023-01-04T08:18:25;8.37;;;3.60;;
26277;SDS011;14000;52.056;8.510;2023-01-04T08:21:00;9.57;;;3.77;;
26277;SDS011;14000;52.056;8.510;2023-01-04T08:23:33;7.30;;;3.33;;
26277;SDS011;14000;52.056;8.510;2023-01-04T08:26:00;7.47;;;3.20;;
26277;SDS011;14000;52.056;8.510;2023-01-04T08:28:31;8.13;;;3.73;;
26277;SDS011;14000;52.056;8.510;2023-01-04T08:30:56;7.67;;;3.47;;
26277;SDS011;14000;52.056;8.510;2023-01-04T08:33:22;8.37;;;3.10;;
26277;SDS011;14000;52.056;8.510;2023-01-04T08:35:48;8.50;;;3.30;;
26277;SDS011;14000;52.056;8.510;2023-01-04T08:38:14;10.23;;;3.90;;
26277;SDS011;14000;52.056;8.510;2023-01-04T08:40:40;7.40;;;3.13;;
26277;SDS011;14000;52.056;8.510;2023-01-04T08:43:05;7.07;;;3.10;;
26277;SDS011;14000;52.056;8.510;2023-01-04T08:45:31;6.90;;;2.90;;
26277;SDS011;14000;52.056;8.510;2023-01-04T08:47:56;7.67;;;3.03;;
26277;SDS011;14000;52.056;8.510;2023-01-04T08:50:22;10.73;;;4.07;;
26277;SDS011;14000;52.056;8.510;2023-01-04T08:52:48;9.70;;;3.60;;
26277;SDS011;14000;52.056;8.510;2023-01-04T08:55:13;7.57;;;2.77;;
26277;SDS011;14000;52.056;8.510;2023-01-04T08:57:40;8.03;;;2.77;;
26277;SDS011;14000;52.056;8.510;2023-01-04T09:00:06;8.33;;;3.37;;
26277;SDS011;14000;52.056;8.510;2023-01-04T09:02:33;8.13;;;3.60;;
26277;SDS011;14000;52.056;8.510;2023-01-04T09:04:59;8.53;;;2.50;;
26277;SDS011;14000;52.056;8.510;2023-01-04T09:07:27;6.90;;;2.67;;
26277;SDS011;14000;52.056;8.510;2023-01-04T09:09:56;7.97;;;3.23;;
26277;SDS011;14000;52.056;8.510;2023-01-04T09:12:22;8.63;;;3.37;;
26277;SDS011;14000;52.056;8.510;2023-01-04T09:14:48;9.37;;;3.83;;
26277;SDS011;14000;52.056;8.510;2023-01-04T09:17:14;8.73;;;3.13;;
26277;SDS011;14000;52.056;8.510;2023-01-04T09:19:39;8.00;;;3.40;;
26277;SDS011;14000;52.056;8.510;2023-01-04T09:22:05;8.33;;;3.73;;
26277;SDS011;14000;52.056;8.510;2023-01-04T09:24:31;7.20;;;2.93;;
26277;SDS011;14000;52.056;8.510;2023-01-04T09:26:57;6.90;;;2.90;;
26277;SDS011;14000;52.056;8.510;2023-01-04T09:29:23;9.80;;;2.50;;
26277;SDS011;14000;52.056;8.510;2023-01-04T09:31:51;8.53;;;3.00;;
26277;SDS011;14000;52.056;8.510;2023-01-04T09:34:17;8.57;;;3.20;;
26277;SDS011;14000;52.056;8.510;2023-01-04T09:36:43;8.23;;;3.03;;
26277;SDS011;14000;52.056;8.510;2023-01-04T09:39:10;7.20;;;2.80;;
26277;SDS011;14000;52.056;8.510;2023-01-04T09:41:54;7.60;;;2.70;;
26277;SDS011;14000;52.056;8.510;2023-01-04T09:44:27;7.60;;;3.40;;
26277;SDS011;14000;52.056;8.510;2023-01-04T09:47:17;6.20;;;2.43;;
26277;SDS011;14000;52.056;8.510;2023-01-04T09:53:01;7.40;;;3.10;;
26277;SDS011;14000;52.056;8.510;2023-01-04T09:55:36;9.53;;;3.40;;
26277;SDS011;14000;52.056;8.510;2023-01-04T09:58:04;7.97;;;3.20;;
26277;SDS011;14000;52.056;8.510;2023-01-04T10:01:17;8.10;;;3.43;;
26277;SDS011;14000;52.056;8.510;2023-01-04T10:03:47;7.77;;;3.40;;
26277;SDS011;14000;52.056;8.510;2023-01-04T10:06:14;10.30;;;3.10;;
26277;SDS011;14000;52.056;8.510;2023-01-04T10:08:40;8.00;;;2.90;;
26277;SDS011;14000;52.056;8.510;2023-01-04T10:14:01;8.20;;;3.27;;
26277;SDS011;14000;52.056;8.510;2023-01-04T10:19:27;7.90;;;3.50;;
26277;SDS011;14000;52.056;8.510;2023-01-04T10:22:07;9.27;;;3.43;;
26277;SDS011;14000;52.056;8.510;2023-01-04T10:24:46;8.67;;;3.53;;
26277;SDS011;14000;52.056;8.510;2023-01-04T10:30:24;7.80;;;3.40;;
26277;SDS011;14000;52.056;8.510;2023-01-04T10:36:12;9.27;;;3.10;;
26277;SDS011;14000;52.056;8.510;2023-01-04T10:38:47;7.60;;;3.10;;
26277;SDS011;14000;52.056;8.510;2023-01-04T10:41:38;8.00;;;3.10;;
26277;SDS011;14000;52.056;8.510;2023-01-04T10:44:14;7.97;;;3.43;;
26277;SDS011;14000;52.056;8.510;2023-01-04T10:49:55;8.50;;;3.90;;
26277;SDS011;14000;52.056;8.510;2023-01-04T10:52:36;7.83;;;3.77;;
26277;SDS011;14000;52.056;8.510;2023-01-04T10:55:16;7.93;;;3.63;;
26277;SDS011;14000;52.056;8.510;2023-01-04T10:58:05;7.87;;;3.43;;
26277;SDS011;14000;52.056;8.510;2023-01-04T11:00:54;10.07;;;3.77;;
26277;SDS011;14000;52.056;8.510;2023-01-04T11:09:22;8.53;;;4.33;;
26277;SDS011;14000;52.056;8.510;2023-01-04T11:11:46;7.93;;;3.90;;
26277;SDS011;14000;52.056;8.510;2023-01-04T11:14:12;9.10;;;4.40;;
26277;SDS011;14000;52.056;8.510;2023-01-04T11:16:39;8.80;;;4.33;;
26277;SDS011;14000;52.056;8.510;2023-01-04T11:19:09;9.90;;;5.10;;
26277;SDS011;14000;52.056;8.510;2023-01-04T11:21:55;8.73;;;4.10;;
26277;SDS011;14000;52.056;8.510;2023-01-04T11:24:44;9.10;;;4.70;;
26277;SDS011;14000;52.056;8.510;2023-01-04T11:27:15;9.37;;;5.10;;
26277;SDS011;14000;52.056;8.510;2023-01-04T11:29:49;10.17;;;4.90;;
26277;SDS011;14000;52.056;8.510;2023-01-04T11:35:03;10.10;;;4.80;;
26277;SDS011;14000;52.056;8.510;2023-01-04T11:37:31;11.27;;;5.27;;
26277;SDS011;14000;52.056;8.510;2023-01-04T11:42:35;11.10;;;4.43;;
26277;SDS011;14000;52.056;8.510;2023-01-04T11:45:01;13.43;;;5.70;;
26277;SDS011;14000;52.056;8.510;2023-01-04T11:47:26;9.10;;;4.30;;
26277;SDS011;14000;52.056;8.510;2023-01-04T11:49:52;8.57;;;4.00;;
26277;SDS011;14000;52.056;8.510;2023-01-04T11:55:22;9.10;;;4.77;;
26277;SDS011;14000;52.056;8.510;2023-01-04T11:58:10;11.83;;;4.80;;
26277;SDS011;14000;52.056;8.510;2023-01-04T12:00:36;9.67;;;4.10;;
26277;SDS011;14000;52.056;8.510;2023-01-04T12:03:10;10.20;;;4.83;;
26277;SDS011;14000;52.056;8.510;2023-01-04T12:05:37;8.33;;;3.63;;
26277;SDS011;14000;52.056;8.510;2023-01-04T12:08:03;7.90;;;3.67;;
26277;SDS011;14000;52.056;8.510;2023-01-04T12:10:28;8.90;;;3.80;;
26277;SDS011;14000;52.056;8.510;2023-01-04T12:12:55;9.00;;;4.00;;
26277;SDS011;14000;52.056;8.510;2023-01-04T12:18:28;8.30;;;4.00;;
26277;SDS011;14000;52.056;8.510;2023-01-04T12:20:59;9.40;;;4.73;;
26277;SDS011;14000;52.056;8.510;2023-01-04T12:23:27;9.13;;;3.70;;
26277;SDS011;14000;52.056;8.510;2023-01-04T12:25:53;8.10;;;3.87;;
26277;SDS011;14000;52.056;8.510;2023-01-04T12:33:51;8.43;;;4.10;;
26277;SDS011;14000;52.056;8.510;2023-01-04T12:50:22;8.33;;;4.50;;
26277;SDS011;14000;52.056;8.510;2023-01-04T12:52:52;8.93;;;4.57;;
26277;SDS011;14000;52.056;8.510;2023-01-04T12:57:55;10.23;;;5.27;;
26277;SDS011;14000;52.056;8.510;2023-01-04T13:00:22;9.70;;;4.60;;
26277;SDS011;14000;52.056;8.510;2023-01-04T13:05:41;8.93;;;4.50;;
26277;SDS011;14000;52.056;8.510;2023-01-04T13:08:11;9.20;;;4.97;;
26277;SDS011;14000;52.056;8.510;2023-01-04T13:10:46;11.50;;;5.37;;
26277;SDS011;14000;52.056;8.510;2023-01-04T13:16:24;10.17;;;4.40;;
26277;SDS011;14000;52.056;8.510;2023-01-04T13:19:16;8.93;;;4.70;;
26277;SDS011;14000;52.056;8.510;2023-01-04T13:21:45;9.27;;;5.10;;
26277;SDS011;14000;52.056;8.510;2023-01-04T13:26:47;11.40;;;5.87;;
26277;SDS011;14000;52.056;8.510;2023-01-04T13:29:24;10.70;;;5.97;;
26277;SDS011;14000;52.056;8.510;2023-01-04T13:31:55;12.10;;;6.57;;
26277;SDS011;14000;52.056;8.510;2023-01-04T13:34:28;11.70;;;6.70;;
26277;SDS011;14000;52.056;8.510;2023-01-04T13:37:01;11.87;;;7.40;;
26277;SDS011;14000;52.056;8.510;2023-01-04T13:47:27;12.97;;;7.10;;
26277;SDS011;14000;52.056;8.510;2023-01-04T13:49:57;12.07;;;8.10;;
26277;SDS011;14000;52.056;8.510;2023-01-04T13:52:26;10.40;;;6.93;;
26277;SDS011;14000;52.056;8.510;2023-01-04T13:55:09;11.30;;;7.20;;
26277;SDS011;14000;52.056;8.510;2023-01-04T13:58:05;11.50;;;7.67;;
26277;SDS011;14000;52.056;8.510;2023-01-04T14:00:43;12.20;;;8.03;;
26277;SDS011;14000;52.056;8.510;2023-01-04T14:03:14;11.13;;;7.60;;
26277;SDS011;14000;52.056;8.510;2023-01-04T14:05:45;10.97;;;7.40;;
26277;SDS011;14000;52.056;8.510;2023-01-04T14:08:48;12.70;;;8.10;;
26277;SDS011;14000;52.056;8.510;2023-01-04T14:11:19;11.10;;;7.57;;
26277;SDS011;14000;52.056;8.510;2023-01-04T14:17:03;11.80;;;7.30;;
26277;SDS011;14000;52.056;8.510;2023-01-04T14:19:43;13.20;;;9.60;;
26277;SDS011;14000;52.056;8.510;2023-01-04T14:22:27;13.80;;;10.30;;
26277;SDS011;14000;52.056;8.510;2023-01-04T14:24:54;11.93;;;8.73;;
26277;SDS011;14000;52.056;8.510;2023-01-04T14:27:29;12.03;;;7.63;;
26277;SDS011;14000;52.056;8.510;2023-01-04T14:35:38;13.90;;;6.90;;
26277;SDS011;14000;52.056;8.510;2023-01-04T14:38:09;12.13;;;6.63;;
26277;SDS011;14000;52.056;8.510;2023-01-04T14:40:38;10.43;;;5.40;;
26277;SDS011;14000;52.056;8.510;2023-01-04T14:46:00;10.80;;;5.40;;
26277;SDS011;14000;52.056;8.510;2023-01-04T14:48:29;11.33;;;4.70;;
26277;SDS011;14000;52.056;8.510;2023-01-04T14:50:55;11.43;;;5.80;;
26277;SDS011;14000;52.056;8.510;2023-01-04T14:53:23;9.30;;;4.80;;
26277;SDS011;14000;52.056;8.510;2023-01-04T14:55:49;10.90;;;4.53;;
26277;SDS011;14000;52.056;8.510;2023-01-04T14:58:14;9.37;;;4.80;;
26277;SDS011;14000;52.056;8.510;2023-01-04T15:00:40;9.23;;;4.30;;
26277;SDS011;14000;52.056;8.510;2023-01-04T15:03:06;10.40;;;4.77;;
26277;SDS011;14000;52.056;8.510;2023-01-04T15:05:33;10.07;;;4.47;;
26277;SDS011;14000;52.056;8.510;2023-01-04T15:07:59;9.30;;;4.83;;
26277;SDS011;14000;52.056;8.510;2023-01-04T15:10:26;12.60;;;4.80;;
26277;SDS011;14000;52.056;8.510;2023-01-04T15:12:53;9.80;;;3.93;;
26277;SDS011;14000;52.056;8.510;2023-01-04T15:15:19;10.33;;;4.07;;
26277;SDS011;14000;52.056;8.510;2023-01-04T15:17:45;11.17;;;4.23;;
26277;SDS011;14000;52.056;8.510;2023-01-04T15:20:11;10.20;;;4.50;;
26277;SDS011;14000;52.056;8.510;2023-01-04T15:22:38;8.70;;;4.30;;
26277;SDS011;14000;52.056;8.510;2023-01-04T15:25:04;8.80;;;3.40;;
26277;SDS011;14000;52.056;8.510;2023-01-04T15:27:31;11.07;;;3.50;;
26277;SDS011;14000;52.056;8.510;2023-01-04T15:29:57;11.87;;;3.97;;
26277;SDS011;14000;52.056;8.510;2023-01-04T15:32:22;9.93;;;3.93;;
26277;SDS011;14000;52.056;8.510;2023-01-04T15:34:48;9.87;;;3.30;;
26277;SDS011;14000;52.056;8.510;2023-01-04T15:37:14;11.77;;;4.20;;
26277;SDS011;14000;52.056;8.510;2023-01-04T15:39:41;12.73;;;3.70;;
26277;SDS011;14000;52.056;8.510;2023-01-04T15:42:08;10.80;;;3.97;;
26277;SDS011;14000;52.056;8.510;2023-01-04T15:44:53;8.70;;;3.77;;
26277;SDS011;14000;52.056;8.510;2023-01-04T15:47:19;11.40;;;3.60;;
26277;SDS011;14000;52.056;8.510;2023-01-04T15:49:45;11.07;;;3.30;;
26277;SDS011;14000;52.056;8.510;2023-01-04T15:52:10;10.00;;;3.20;;
26277;SDS011;14000;52.056;8.510;2023-01-04T15:54:36;10.13;;;3.47;;
26277;SDS011;14000;52.056;8.510;2023-01-04T15:57:01;9.90;;;3.80;;
26277;SDS011;14000;52.056;8.510;2023-01-04T15:59:27;11.37;;;3.50;;
26277;SDS011;14000;52.056;8.510;2023-01-04T16:01:53;9.40;;;3.20;;
26277;SDS011;14000;52.056;8.510;2023-01-04T16:04:18;9.87;;;3.60;;
26277;SDS011;14000;52.056;8.510;2023-01-04T16:06:44;9.10;;;3.57;;
26277;SDS011;14000;52.056;8.510;2023-01-04T16:09:10;9.67;;;4.00;;
26277;SDS011;14000;52.056;8.510;2023-01-04T16:11:35;10.73;;;3.90;;
26277;SDS011;14000;52.056;8.510;2023-01-04T16:14:21;10.27;;;4.93;;
26277;SDS011;14000;52.056;8.510;2023-01-04T16:16:47;13.27;;;4.97;;
26277;SDS011;14000;52.056;8.510;2023-01-04T16:19:12;8.93;;;4.00;;
26277;SDS011;14000;52.056;8.510;2023-01-04T16:21:38;9.37;;;3.83;;
26277;SDS011;14000;52.056;8.510;2023-01-04T16:24:03;13.80;;;4.93;;
26277;SDS011;14000;52.056;8.510;2023-01-04T16:26:30;12.23;;;4.43;;
26277;SDS011;14000;52.056;8.510;2023-01-04T16:28:56;11.27;;;4.23;;
26277;SDS011;14000;52.056;8.510;2023-01-04T16:31:22;13.37;;;4.03;;
26277;SDS011;14000;52.056;8.510;2023-01-04T16:33:51;11.57;;;4.63;;
26277;SDS011;14000;52.056;8.510;2023-01-04T16:36:17;14.73;;;5.13;;
26277;SDS011;14000;52.056;8.510;2023-01-04T16:38:43;11.33;;;4.30;;
26277;SDS011;14000;52.056;8.510;2023-01-04T16:41:11;15.40;;;3.53;;
26277;SDS011;14000;52.056;8.510;2023-01-04T16:43:43;10.90;;;3.40;;
26277;SDS011;14000;52.056;8.510;2023-01-04T16:51:50;13.00;;;3.20;;
26277;SDS011;14000;52.056;8.510;2023-01-04T16:54:17;12.20;;;2.90;;
26277;SDS011;14000;52.056;8.510;2023-01-04T16:56:43;11.83;;;2.90;;
26277;SDS011;14000;52.056;8.510;2023-01-04T16:59:14;9.90;;;2.87;;
26277;SDS011;14000;52.056;8.510;2023-01-04T17:01:42;9.90;;;2.50;;
26277;SDS011;14000;52.056;8.510;2023-01-04T17:04:09;10.43;;;2.77;;
26277;SDS011;14000;52.056;8.510;2023-01-04T17:06:36;12.97;;;3.23;;
26277;SDS011;14000;52.056;8.510;2023-01-04T17:09:04;10.93;;;2.77;;
26277;SDS011;14000;52.056;8.510;2023-01-04T17:11:33;12.10;;;2.63;;
26277;SDS011;14000;52.056;8.510;2023-01-04T17:14:00;11.40;;;2.80;;
26277;SDS011;14000;52.056;8.510;2023-01-04T17:16:27;9.47;;;2.30;;